Time;durP1;ratioP1;P1;durP2;ratioP2;P2;SDS_P1;SDS_P2;PMS_P1;PMS_P2;Temp;Humidity;BMP_temperature;BMP_pressure;BME280_temperature;BME280_humidity;BME280_pressure;Samples;Min_cycle;Max_cycle;Signal;HPM_P1;HPM_P2
2023/12/31 00:00:55;;;;;;;6.82;1.40;;;8.90;99.90;;;;;;5052722;28;20049;-72
2023/12/31 00:03:21;;;;;;;0.55;0.55;;;8.80;99.90;;;;;;5067847;28;20051;-71
2023/12/31 00:05:46;;;;;;;1.33;0.68;;;8.90;99.90;;;;;;5071498;28;20044;-71
2023/12/31 00:08:13;;;;;;;1.15;1.05;;;8.70;99.90;;;;;;5069217;28;20115;-71
2023/12/31 00:10:39;;;;;;;0.57;0.45;;;8.90;99.90;;;;;;5061875;28;20044;-71
2023/12/31 00:13:05;;;;;;;5.10;1.10;;;8.50;99.90;;;;;;5070224;28;20127;-71
2023/12/31 00:15:31;;;;;;;0.55;0.55;;;9.00;99.90;;;;;;5062470;28;20045;-72
2023/12/31 00:17:57;;;;;;;0.40;0.40;;;8.80;99.90;;;;;;5052473;28;20098;-72
2023/12/31 00:20:23;;;;;;;0.50;0.50;;;8.60;99.90;;;;;;5052035;28;20500;-72
2023/12/31 00:22:48;;;;;;;0.63;0.63;;;8.90;99.90;;;;;;5050653;28;20049;-72
2023/12/31 00:25:15;;;;;;;0.30;0.30;;;8.70;99.90;;;;;;5051158;28;20162;-72
2023/12/31 00:27:41;;;;;;;0.98;0.93;;;8.70;99.90;;;;;;5051408;28;20044;-71
2023/12/31 00:30:08;;;;;;;0.30;0.30;;;8.80;99.90;;;;;;5052553;28;20094;-72
2023/12/31 00:32:33;;;;;;;0.50;0.50;;;8.80;99.90;;;;;;5051669;28;20053;-72
2023/12/31 00:34:59;;;;;;;0.40;0.40;;;9.00;99.90;;;;;;5052223;28;20056;-71
2023/12/31 00:37:25;;;;;;;0.30;0.30;;;8.90;99.90;;;;;;5051710;28;20064;-71
2023/12/31 00:39:51;;;;;;;0.60;0.60;;;9.00;99.90;;;;;;5051684;28;20084;-71
2023/12/31 00:42:16;;;;;;;0.40;0.40;;;8.70;99.90;;;;;;5064620;28;20048;-71
2023/12/31 00:44:42;;;;;;;1.20;0.82;;;8.80;99.90;;;;;;5052369;28;20051;-71
2023/12/31 00:47:08;;;;;;;0.85;0.85;;;9.40;99.90;;;;;;5052016;28;20044;-71
2023/12/31 00:49:33;;;;;;;0.35;0.35;;;8.90;99.90;;;;;;5052100;28;20037;-72
2023/12/31 00:51:59;;;;;;;0.47;0.47;;;8.80;99.90;;;;;;5068132;28;20072;-72
2023/12/31 00:54:25;;;;;;;0.45;0.45;;;8.80;99.90;;;;;;5050514;28;20147;-71
2023/12/31 00:56:51;;;;;;;0.30;0.30;;;8.90;99.90;;;;;;5051772;28;20049;-71
2023/12/31 00:59:16;;;;;;;0.20;0.20;;;8.90;99.90;;;;;;5051910;28;20799;-72
2023/12/31 01:01:42;;;;;;;0.47;0.47;;;8.90;99.90;;;;;;5049592;28;20052;-71
2023/12/31 01:04:08;;;;;;;0.20;0.20;;;8.80;99.90;;;;;;5059712;28;20044;-71
2023/12/31 01:06:33;;;;;;;0.20;0.20;;;8.50;99.90;;;;;;5071292;28;20128;-72
2023/12/31 01:08:59;;;;;;;0.90;0.90;;;8.80;99.90;;;;;;5062091;28;20128;-72
2023/12/31 01:11:27;;;;;;;0.30;0.30;;;8.50;99.90;;;;;;5051332;28;20052;-72
2023/12/31 01:13:53;;;;;;;0.40;0.40;;;8.80;99.90;;;;;;5051586;28;20178;-71
2023/12/31 01:16:19;;;;;;;0.63;0.63;;;8.20;99.90;;;;;;5050336;28;20049;-72
2023/12/31 01:18:45;;;;;;;5.07;1.65;;;8.60;99.90;;;;;;5050839;28;20053;-71
2023/12/31 01:21:10;;;;;;;0.40;0.40;;;8.20;99.90;;;;;;5050791;28;20057;-72
2023/12/31 01:23:36;;;;;;;0.30;0.30;;;8.30;99.90;;;;;;5061945;28;20171;-71
2023/12/31 01:26:02;;;;;;;0.40;0.40;;;8.40;99.90;;;;;;5070712;28;20059;-72
2023/12/31 01:28:28;;;;;;;1.08;1.08;;;8.10;99.90;;;;;;5061567;28;20048;-72
2023/12/31 01:30:54;;;;;;;0.45;0.45;;;8.40;99.90;;;;;;5067508;28;20047;-71
2023/12/31 01:33:19;;;;;;;0.73;0.73;;;8.50;99.90;;;;;;5071260;28;20048;-72
2023/12/31 01:35:45;;;;;;;0.57;0.57;;;8.10;99.90;;;;;;5070530;28;20046;-72
2023/12/31 01:38:11;;;;;;;0.45;0.45;;;8.30;99.90;;;;;;5069631;28;20063;-72
2023/12/31 01:40:36;;;;;;;0.30;0.30;;;8.50;99.90;;;;;;5070103;28;20421;-71
2023/12/31 01:43:02;;;;;;;0.50;0.50;;;8.60;99.90;;;;;;5070835;28;20064;-71
2023/12/31 01:45:28;;;;;;;0.20;0.20;;;8.30;99.90;;;;;;5069716;28;20148;-71
2023/12/31 01:47:54;;;;;;;1.55;0.55;;;8.30;99.90;;;;;;5069939;28;20052;-71
2023/12/31 01:50:21;;;;;;;0.28;0.28;;;8.40;99.90;;;;;;5070208;28;20129;-71
2023/12/31 01:52:47;;;;;;;0.28;0.28;;;8.40;99.90;;;;;;5070394;28;20055;-71
2023/12/31 01:55:13;;;;;;;;;;;8.70;99.90;;;;;;5070165;28;20037;-71
2023/12/31 01:57:40;;;;;;;0.20;0.20;;;8.60;99.90;;;;;;5070106;28;20376;-72
2023/12/31 02:00:07;;;;;;;0.52;0.52;;;8.60;99.90;;;;;;5066039;28;20127;-72
2023/12/31 02:02:32;;;;;;;;;;;8.50;99.90;;;;;;5061031;28;20045;-71
2023/12/31 02:04:58;;;;;;;0.30;0.30;;;8.70;99.90;;;;;;5068050;28;20006;-70
2023/12/31 02:07:24;;;;;;;0.30;0.30;;;8.40;99.90;;;;;;5051449;28;20118;-71
2023/12/31 02:09:51;;;;;;;0.20;0.20;;;7.80;99.90;;;;;;5051131;28;20044;-71
2023/12/31 02:12:18;;;;;;;0.65;0.65;;;8.50;99.90;;;;;;5051132;28;20425;-71
2023/12/31 02:14:43;;;;;;;0.20;0.20;;;8.30;99.90;;;;;;5067002;28;20032;-71
2023/12/31 02:17:09;;;;;;;0.32;0.32;;;8.20;99.90;;;;;;5072868;28;20057;-71
2023/12/31 02:19:35;;;;;;;0.20;0.20;;;8.20;99.90;;;;;;5105838;28;20037;-71
2023/12/31 02:22:01;;;;;;;0.30;0.30;;;8.00;99.90;;;;;;5073477;28;20095;-71
2023/12/31 02:24:34;;;;;;;0.22;0.22;;;8.10;99.90;;;;;;5071924;28;20040;-71
2023/12/31 02:26:59;;;;;;;0.30;0.30;;;8.60;99.90;;;;;;5073444;28;20070;-71
2023/12/31 02:29:25;;;;;;;0.20;0.20;;;8.00;99.90;;;;;;5071552;28;20759;-71
2023/12/31 02:31:51;;;;;;;0.30;0.30;;;8.20;99.90;;;;;;5055141;28;20513;-71
2023/12/31 02:34:16;;;;;;;0.20;0.20;;;8.40;99.90;;;;;;5071660;28;20408;-71
2023/12/31 02:36:42;;;;;;;0.20;0.20;;;8.60;99.90;;;;;;5072449;28;20036;-71
2023/12/31 02:39:08;;;;;;;0.40;0.40;;;8.40;99.90;;;;;;5069993;28;20040;-71
2023/12/31 02:41:34;;;;;;;;;;;8.40;99.90;;;;;;5072446;28;20049;-71
2023/12/31 02:44:02;;;;;;;1.00;0.40;;;8.30;99.90;;;;;;5068627;28;19946;-71
2023/12/31 02:46:27;;;;;;;0.20;0.20;;;8.60;99.90;;;;;;5071891;28;20051;-71
2023/12/31 02:48:53;;;;;;;0.38;0.38;;;8.20;99.90;;;;;;5069052;28;20036;-71
2023/12/31 02:51:18;;;;;;;0.20;0.20;;;8.50;99.90;;;;;;5071956;28;20048;-71
2023/12/31 02:53:44;;;;;;;0.60;0.60;;;8.00;99.90;;;;;;5067635;28;20079;-71
2023/12/31 02:56:10;;;;;;;0.52;0.52;;;8.00;99.90;;;;;;5071773;28;20055;-71
2023/12/31 02:58:35;;;;;;;0.45;0.45;;;8.00;99.90;;;;;;5068289;28;20044;-71
2023/12/31 03:01:01;;;;;;;0.40;0.40;;;8.20;99.90;;;;;;5060334;28;20099;-71
2023/12/31 03:03:27;;;;;;;0.30;0.30;;;8.10;99.90;;;;;;5085832;28;20129;-71
2023/12/31 03:05:52;;;;;;;0.75;0.50;;;8.10;99.90;;;;;;5053968;28;20140;-71
2023/12/31 03:08:18;;;;;;;1.25;1.23;;;8.20;99.90;;;;;;5053935;28;20064;-72
2023/12/31 03:10:44;;;;;;;0.20;0.20;;;7.90;99.90;;;;;;5046346;28;20064;-71
2023/12/31 03:13:09;;;;;;;0.20;0.20;;;7.90;99.90;;;;;;5072268;28;20138;-71
2023/12/31 03:15:35;;;;;;;0.63;0.63;;;8.00;99.90;;;;;;5073646;28;20076;-71
2023/12/31 03:18:01;;;;;;;0.40;0.40;;;8.30;99.90;;;;;;5072559;28;20127;-71
2023/12/31 03:20:26;;;;;;;0.32;0.32;;;8.20;99.40;;;;;;5072697;28;20056;-71
2023/12/31 03:22:52;;;;;;;0.47;0.47;;;8.10;98.60;;;;;;5072408;28;20049;-71
2023/12/31 03:25:18;;;;;;;0.20;0.20;;;8.60;95.60;;;;;;5072642;28;20059;-71
2023/12/31 03:27:45;;;;;;;0.20;0.20;;;8.20;88.20;;;;;;5071560;28;20036;-71
2023/12/31 03:30:11;;;;;;;0.40;0.40;;;8.20;92.80;;;;;;5073214;28;20102;-71
2023/12/31 03:32:37;;;;;;;0.20;0.20;;;8.60;90.90;;;;;;5072214;28;20427;-71
2023/12/31 03:35:03;;;;;;;0.20;0.20;;;8.30;85.80;;;;;;5071934;28;20067;-71
2023/12/31 03:37:30;;;;;;;0.20;0.20;;;8.30;83.00;;;;;;5071698;28;20503;-71
2023/12/31 03:39:56;;;;;;;1.65;0.65;;;8.50;80.60;;;;;;5073063;28;20067;-72
2023/12/31 03:42:21;;;;;;;0.70;0.70;;;8.20;78.20;;;;;;5072272;28;20377;-72
2023/12/31 03:44:47;;;;;;;0.30;0.30;;;8.10;73.20;;;;;;5055314;28;20477;-71
2023/12/31 03:47:13;;;;;;;0.32;0.32;;;8.20;70.10;;;;;;5071322;28;20045;-72
2023/12/31 03:49:39;;;;;;;0.22;0.22;;;8.20;72.40;;;;;;5073054;28;20427;-71
2023/12/31 03:52:06;;;;;;;0.20;0.20;;;8.20;65.00;;;;;;5072545;28;20047;-72
2023/12/31 03:54:32;;;;;;;0.10;0.10;;;8.10;63.00;;;;;;5072931;28;20052;-72
2023/12/31 03:56:57;;;;;;;0.20;0.20;;;8.40;67.40;;;;;;5071133;28;20110;-72
2023/12/31 03:59:23;;;;;;;0.10;0.10;;;8.10;59.70;;;;;;5073435;28;20040;-71
2023/12/31 04:01:55;;;;;;;0.35;0.35;;;8.50;63.10;;;;;;5054596;28;20477;-71
2023/12/31 04:04:21;;;;;;;0.28;0.28;;;8.60;61.50;;;;;;5051449;28;20417;-71
2023/12/31 04:06:47;;;;;;;0.30;0.30;;;8.40;50.90;;;;;;5065658;28;20045;-72
2023/12/31 04:09:13;;;;;;;0.70;0.40;;;8.30;48.70;;;;;;5052909;28;20097;-72
2023/12/31 04:11:38;;;;;;;0.40;0.40;;;8.40;44.50;;;;;;5064648;28;20405;-71
2023/12/31 04:14:04;;;;;;;0.30;0.30;;;8.70;39.10;;;;;;5051873;28;20049;-71
2023/12/31 04:16:30;;;;;;;1.45;0.35;;;8.50;29.40;;;;;;5056699;28;20129;-71
2023/12/31 04:18:55;;;;;;;0.47;0.47;;;8.90;31.70;;;;;;5071370;28;20052;-70
2023/12/31 04:21:21;;;;;;;0.20;0.20;;;8.70;31.30;;;;;;5071313;28;20508;-71
2023/12/31 04:23:47;;;;;;;1.15;1.15;;;;;;;;;;5072229;28;20485;-71
2023/12/31 04:26:13;;;;;;;0.30;0.30;;;8.50;26.00;;;;;;5070840;28;20127;-71
2023/12/31 04:28:38;;;;;;;0.45;0.40;;;8.20;34.90;;;;;;5070599;28;20190;-71
2023/12/31 04:31:04;;;;;;;0.30;0.30;;;8.70;32.40;;;;;;5070211;28;20033;-71
2023/12/31 04:33:30;;;;;;;0.45;0.45;;;8.70;29.00;;;;;;5071684;28;20055;-71
2023/12/31 04:35:56;;;;;;;0.30;0.30;;;8.80;32.20;;;;;;5070502;28;20044;-72
2023/12/31 04:38:21;;;;;;;0.28;0.28;;;8.60;29.50;;;;;;5071483;28;20044;-71
2023/12/31 04:40:47;;;;;;;0.43;0.43;;;8.90;26.50;;;;;;5070142;28;20029;-71
2023/12/31 04:43:13;;;;;;;0.40;0.40;;;8.80;20.00;;;;;;5070143;28;20055;-69
2023/12/31 04:45:39;;;;;;;0.20;0.20;;;8.70;15.70;;;;;;5069890;28;20052;-72
2023/12/31 04:48:05;;;;;;;0.82;0.52;;;8.80;13.80;;;;;;5069872;28;20075;-71
2023/12/31 04:50:30;;;;;;;0.47;0.47;;;9.00;11.90;;;;;;5069953;28;20044;-71
2023/12/31 04:52:56;;;;;;;0.20;0.20;;;8.60;8.70;;;;;;5070627;28;20056;-71
2023/12/31 04:55:22;;;;;;;0.20;0.20;;;8.60;7.90;;;;;;5069173;28;20101;-71
2023/12/31 04:57:49;;;;;;;0.30;0.30;;;8.80;8.00;;;;;;5071006;28;20048;-71
2023/12/31 05:00:15;;;;;;;0.30;0.30;;;8.80;6.70;;;;;;5064989;28;20067;-71
2023/12/31 05:02:41;;;;;;;0.38;0.38;;;8.50;9.40;;;;;;5062511;28;20500;-71
2023/12/31 05:05:07;;;;;;;0.40;0.40;;;8.40;14.30;;;;;;5071151;28;20052;-71
2023/12/31 05:07:33;;;;;;;0.40;0.40;;;8.60;15.20;;;;;;5071526;28;20045;-71
2023/12/31 05:09:58;;;;;;;0.40;0.40;;;8.60;17.40;;;;;;5069191;28;20048;-71
2023/12/31 05:12:24;;;;;;;0.30;0.30;;;8.30;17.50;;;;;;5071210;28;20499;-70
2023/12/31 05:14:50;;;;;;;0.22;0.22;;;8.30;23.90;;;;;;5069831;28;20051;-70
2023/12/31 05:17:15;;;;;;;0.30;0.30;;;8.50;21.40;;;;;;5069677;28;20051;-70
2023/12/31 05:19:41;;;;;;;0.13;0.13;;;8.40;25.60;;;;;;5068494;28;20762;-71
2023/12/31 05:22:07;;;;;;;0.68;0.68;;;8.40;19.70;;;;;;5070381;28;20500;-71
2023/12/31 05:24:32;;;;;;;0.20;0.20;;;8.40;26.50;;;;;;5068955;28;20040;-71
2023/12/31 05:26:58;;;;;;;0.57;0.57;;;8.40;27.50;;;;;;5069689;28;20086;-71
2023/12/31 05:29:24;;;;;;;1.02;0.88;;;8.60;23.70;;;;;;5068191;28;20094;-72
2023/12/31 05:31:49;;;;;;;0.43;0.43;;;8.50;20.10;;;;;;5070574;28;20045;-71
2023/12/31 05:34:15;;;;;;;0.20;0.20;;;8.70;14.80;;;;;;5069807;28;20041;-69
2023/12/31 05:36:41;;;;;;;0.47;0.47;;;8.50;17.90;;;;;;5069234;28;20045;-70
2023/12/31 05:39:08;;;;;;;0.35;0.35;;;8.50;13.30;;;;;;5069436;28;20056;-70
2023/12/31 05:41:35;;;;;;;0.17;0.17;;;8.40;8.10;;;;;;5070727;28;20041;-71
2023/12/31 05:44:00;;;;;;;0.35;0.35;;;8.70;15.90;;;;;;5069265;28;20100;-71
2023/12/31 05:46:26;;;;;;;0.20;0.20;;;8.60;17.00;;;;;;5069790;28;20452;-71
2023/12/31 05:48:52;;;;;;;1.10;1.00;;;8.30;12.50;;;;;;5068181;28;20125;-68
2023/12/31 05:51:18;;;;;;;0.20;0.20;;;8.80;16.70;;;;;;5072556;28;20053;-71
2023/12/31 05:53:44;;;;;;;0.40;0.40;;;8.20;11.80;;;;;;5073111;28;20041;-71
2023/12/31 05:56:09;;;;;;;0.17;0.17;;;8.20;11.30;;;;;;5074260;28;20075;-72
2023/12/31 05:58:35;;;;;;;0.30;0.30;;;8.30;9.90;;;;;;5072324;28;20092;-68
2023/12/31 06:01:02;;;;;;;0.28;0.28;;;8.70;6.30;;;;;;5063219;28;20110;-70
2023/12/31 06:03:28;;;;;;;0.30;0.30;;;8.20;1.90;;;;;;5087547;28;20115;-71
2023/12/31 06:05:54;;;;;;;6.32;1.13;;;8.40;3.60;;;;;;5065692;28;20049;-71
2023/12/31 06:08:19;;;;;;;0.30;0.30;;;8.40;2.60;;;;;;5074238;28;20032;-71
2023/12/31 06:10:45;;;;;;;0.20;0.20;;;8.60;3.10;;;;;;5074395;28;20041;-70
2023/12/31 06:13:11;;;;;;;0.30;0.30;;;8.30;1.00;;;;;;5072271;28;20045;-70
2023/12/31 06:15:37;;;;;;;0.30;0.30;;;8.60;1.00;;;;;;5074245;28;20049;-70
2023/12/31 06:18:02;;;;;;;0.20;0.20;;;8.60;1.00;;;;;;5072121;28;20094;-69
2023/12/31 06:20:28;;;;;;;0.50;0.50;;;8.60;1.00;;;;;;5073961;28;20499;-71
2023/12/31 06:22:54;;;;;;;0.47;0.47;;;8.50;1.00;;;;;;5072976;28;20408;-72
2023/12/31 06:25:20;;;;;;;0.30;0.30;;;8.60;1.00;;;;;;5073859;28;20098;-69
2023/12/31 06:27:45;;;;;;;0.30;0.30;;;8.70;1.00;;;;;;5073429;28;20051;-71
2023/12/31 06:30:11;;;;;;;0.57;0.57;;;8.50;1.00;;;;;;5073516;28;20052;-69
2023/12/31 06:32:37;;;;;;;0.80;0.68;;;8.60;1.00;;;;;;5071982;28;20098;-69
2023/12/31 06:35:03;;;;;;;0.10;0.10;;;8.50;1.00;;;;;;5073471;28;20052;-71
2023/12/31 06:37:29;;;;;;;0.20;0.20;;;8.40;1.00;;;;;;5070978;28;20098;-71
2023/12/31 06:39:54;;;;;;;0.32;0.32;;;8.50;1.00;;;;;;5073443;28;20477;-71
2023/12/31 06:42:20;;;;;;;0.65;0.65;;;8.30;1.00;;;;;;5072405;28;20473;-71
2023/12/31 06:44:46;;;;;;;0.30;0.30;;;8.60;1.00;;;;;;5072623;28;20370;-71
2023/12/31 06:47:12;;;;;;;0.20;0.20;;;8.60;1.00;;;;;;5072244;28;20550;-71
2023/12/31 06:49:38;;;;;;;0.30;0.30;;;8.30;1.00;;;;;;5073321;28;20136;-70
2023/12/31 06:52:04;;;;;;;0.30;0.30;;;8.30;1.00;;;;;;5072351;28;20554;-72
2023/12/31 06:54:29;;;;;;;0.30;0.30;;;8.70;1.00;;;;;;5073420;28;20539;-72
2023/12/31 06:56:55;;;;;;;0.43;0.43;;;8.40;1.00;;;;;;5072079;28;20045;-69
2023/12/31 06:59:21;;;;;;;0.20;0.20;;;8.30;1.00;;;;;;5073153;28;20511;-71
2023/12/31 07:01:46;;;;;;;0.30;0.30;;;8.50;1.00;;;;;;5055263;28;20099;-71
2023/12/31 07:04:12;;;;;;;0.63;0.63;;;8.90;1.00;;;;;;5053090;28;20128;-71
2023/12/31 07:06:38;;;;;;;0.40;0.40;;;8.70;1.00;;;;;;5052717;28;20071;-72
2023/12/31 07:09:03;;;;;;;0.55;0.55;;;8.80;1.00;;;;;;5052757;28;20044;-71
2023/12/31 07:11:29;;;;;;;0.35;0.35;;;8.60;1.00;;;;;;5054511;28;20053;-69
2023/12/31 07:13:55;;;;;;;0.65;0.65;;;8.40;1.00;;;;;;5054168;28;20133;-71
2023/12/31 07:16:21;;;;;;;0.28;0.28;;;8.50;1.00;;;;;;5056853;28;20124;-72
2023/12/31 07:18:47;;;;;;;0.73;0.73;;;8.40;1.00;;;;;;5072149;28;20128;-72
2023/12/31 07:21:21;;;;;;;1.13;0.75;;;8.40;1.00;;;;;;5072270;28;20095;-72
2023/12/31 07:23:47;;;;;;;0.20;0.20;;;8.60;1.00;;;;;;5073148;28;20052;-72
2023/12/31 07:26:23;;;;;;;2.55;0.52;;;8.80;1.00;;;;;;5071849;28;20048;-70
2023/12/31 07:28:49;;;;;;;0.63;0.63;;;8.80;1.00;;;;;;5072056;28;20045;-73
2023/12/31 07:31:14;;;;;;;0.60;0.43;;;8.80;1.00;;;;;;5072475;28;20051;-72
2023/12/31 07:33:40;;;;;;;0.22;0.22;;;8.80;1.00;;;;;;5073661;28;20182;-70
2023/12/31 07:36:06;;;;;;;0.22;0.22;;;8.80;1.00;;;;;;5065984;28;20041;-71
2023/12/31 07:38:32;;;;;;;;;;;8.70;1.00;;;;;;5098927;28;20496;-71
2023/12/31 07:40:57;;;;;;;0.20;0.20;;;8.80;1.00;;;;;;5054067;28;19920;-71
2023/12/31 07:43:23;;;;;;;0.80;0.43;;;8.70;1.00;;;;;;5065752;28;20606;-70
2023/12/31 07:45:49;;;;;;;4.30;0.60;;;8.60;1.00;;;;;;5072472;28;20071;-71
2023/12/31 07:48:14;;;;;;;2.53;0.40;;;8.80;1.00;;;;;;5046137;28;20136;-71
2023/12/31 07:50:40;;;;;;;0.40;0.40;;;8.80;1.00;;;;;;5060435;28;20040;-70
2023/12/31 07:53:06;;;;;;;0.52;0.52;;;8.80;1.00;;;;;;5056305;28;20056;-72
2023/12/31 07:55:31;;;;;;;0.65;0.65;;;8.90;1.00;;;;;;5059988;28;20094;-72
2023/12/31 07:57:57;;;;;;;0.50;0.50;;;8.70;1.00;;;;;;5055376;28;20076;-72
2023/12/31 08:00:23;;;;;;;0.55;0.50;;;8.90;1.00;;;;;;5052423;28;20064;-71
2023/12/31 08:02:48;;;;;;;0.40;0.40;;;9.00;1.00;;;;;;5030183;28;20851;-73
2023/12/31 08:05:15;;;;;;;0.30;0.30;;;8.70;1.00;;;;;;5056210;28;20126;-70
2023/12/31 08:07:40;;;;;;;0.10;0.10;;;8.90;1.00;;;;;;5067125;28;20409;-70
2023/12/31 08:10:07;;;;;;;0.38;0.38;;;8.80;1.00;;;;;;5066815;28;20090;-72
2023/12/31 08:12:33;;;;;;;0.40;0.40;;;9.20;1.00;;;;;;5067233;28;20131;-71
2023/12/31 08:14:59;;;;;;;1.10;0.75;;;8.70;1.00;;;;;;5049332;28;20135;-73
2023/12/31 08:17:26;;;;;;;0.30;0.30;;;8.60;1.00;;;;;;5067791;28;20049;-73
2023/12/31 08:19:52;;;;;;;0.45;0.35;;;9.10;1.00;;;;;;5067422;28;20097;-72
2023/12/31 08:22:17;;;;;;;0.20;0.20;;;9.00;1.00;;;;;;5067059;28;20063;-71
2023/12/31 08:24:43;;;;;;;0.40;0.40;;;9.10;1.00;;;;;;5049997;28;20060;-73
2023/12/31 08:27:09;;;;;;;0.38;0.38;;;8.80;1.00;;;;;;5066416;28;20084;-72
2023/12/31 08:29:34;;;;;;;0.30;0.30;;;8.70;1.00;;;;;;5067058;28;20048;-71
2023/12/31 08:32:00;;;;;;;0.30;0.30;;;8.90;1.00;;;;;;5067329;28;20126;-72
2023/12/31 08:34:26;;;;;;;0.50;0.50;;;9.20;1.00;;;;;;5067942;28;20048;-72
2023/12/31 08:36:52;;;;;;;0.88;0.73;;;9.10;1.00;;;;;;5100340;28;20469;-71
2023/12/31 08:39:18;;;;;;;0.35;0.28;;;9.30;1.00;;;;;;5068106;28;20045;-73
2023/12/31 08:41:44;;;;;;;0.60;0.60;;;9.10;1.00;;;;;;5067507;28;20056;-73
2023/12/31 08:44:09;;;;;;;0.52;0.52;;;9.00;1.00;;;;;;5101447;28;20045;-73
2023/12/31 08:46:35;;;;;;;0.40;0.40;;;9.10;1.00;;;;;;5065456;28;20508;-73
2023/12/31 08:49:01;;;;;;;0.40;0.40;;;9.20;1.00;;;;;;5067046;28;20053;-73
2023/12/31 08:51:27;;;;;;;0.22;0.22;;;9.40;1.00;;;;;;5066716;28;20071;-72
2023/12/31 08:53:54;;;;;;;0.50;0.50;;;9.10;1.00;;;;;;5068876;28;20052;-72
2023/12/31 08:56:19;;;;;;;0.40;0.40;;;9.20;1.00;;;;;;5066531;28;20147;-72
2023/12/31 08:58:45;;;;;;;0.45;0.45;;;9.20;1.00;;;;;;5068012;28;20517;-73
2023/12/31 09:01:12;;;;;;;0.57;0.43;;;9.30;1.00;;;;;;5057799;28;20052;-70
2023/12/31 09:03:38;;;;;;;0.28;0.28;;;8.90;1.00;;;;;;5051652;28;20409;-69
2023/12/31 09:06:04;;;;;;;0.40;0.40;;;9.40;1.00;;;;;;5052321;28;20040;-72
2023/12/31 09:08:29;;;;;;;0.65;0.65;;;9.10;1.00;;;;;;5033898;28;20040;-69
2023/12/31 09:10:55;;;;;;;0.45;0.45;;;9.30;1.00;;;;;;5062638;28;20059;-72
2023/12/31 09:13:23;;;;;;;1.20;0.75;;;9.40;1.00;;;;;;5053140;28;20051;-73
2023/12/31 09:15:49;;;;;;;1.75;0.77;;;9.50;1.00;;;;;;5051812;28;20133;-72
2023/12/31 09:18:17;;;;;;;0.40;0.40;;;9.40;1.00;;;;;;5052320;28;20132;-72
2023/12/31 09:20:43;;;;;;;0.20;0.20;;;10.10;1.00;;;;;;5051864;28;20444;-73
2023/12/31 09:23:09;;;;;;;0.20;0.20;;;9.40;1.00;;;;;;5063408;28;20049;-72
2023/12/31 09:25:35;;;;;;;1.30;0.68;;;9.40;1.00;;;;;;5062223;28;20135;-70
2023/12/31 09:28:01;;;;;;;0.47;0.47;;;9.40;1.00;;;;;;5098086;28;20128;-72
2023/12/31 09:30:26;;;;;;;1.52;1.42;;;9.70;1.00;;;;;;5084198;28;20055;-71
2023/12/31 09:32:52;;;;;;;0.55;0.55;;;9.70;1.00;;;;;;5052716;28;20068;-72
2023/12/31 09:35:18;;;;;;;0.25;0.25;;;9.40;1.00;;;;;;5051996;28;20041;-72
2023/12/31 09:37:43;;;;;;;0.28;0.28;;;9.10;1.00;;;;;;5047120;28;20054;-71
2023/12/31 09:40:10;;;;;;;1.65;0.50;;;9.40;1.00;;;;;;5078860;28;20045;-72
2023/12/31 09:42:49;;;;;;;0.45;0.45;;;9.20;1.00;;;;;;5043183;28;20053;-71
2023/12/31 09:45:20;;;;;;;1.08;0.60;;;10.20;1.00;;;;;;5049122;28;20198;-70
2023/12/31 09:47:48;;;;;;;0.60;0.60;;;9.40;1.00;;;;;;5040633;28;20056;-70
2023/12/31 09:50:19;;;;;;;0.40;0.40;;;9.40;1.00;;;;;;5087098;28;20397;-72
2023/12/31 09:52:47;;;;;;;0.52;0.47;;;9.40;1.00;;;;;;5052475;28;20493;-72
2023/12/31 09:55:15;;;;;;;0.20;0.20;;;9.40;1.00;;;;;;5054862;28;20045;-72
2023/12/31 09:57:43;;;;;;;0.30;0.30;;;9.60;1.00;;;;;;5086053;28;20133;-72
2023/12/31 10:00:09;;;;;;;0.45;0.45;;;9.30;1.00;;;;;;5052788;28;20396;-71
2023/12/31 10:02:34;;;;;;;;;;;9.40;1.00;;;;;;5059763;28;20053;-71
2023/12/31 10:05:01;;;;;;;0.20;0.20;;;9.30;1.00;;;;;;5069851;28;19935;-72
2023/12/31 10:07:27;;;;;;;0.20;0.20;;;9.40;1.00;;;;;;5070110;28;20412;-72
2023/12/31 10:09:54;;;;;;;0.93;0.88;;;9.30;1.00;;;;;;5088091;28;20044;-72
2023/12/31 10:12:20;;;;;;;0.35;0.35;;;9.20;1.00;;;;;;5036338;28;20042;-72
2023/12/31 10:14:47;;;;;;;0.50;0.50;;;9.20;2.50;;;;;;5053526;28;20169;-72
2023/12/31 10:17:13;;;;;;;0.43;0.40;;;9.40;1.00;;;;;;5053758;28;20119;-70
2023/12/31 10:19:40;;;;;;;0.30;0.30;;;9.20;1.00;;;;;;5056289;28;20170;-72
2023/12/31 10:22:07;;;;;;;0.28;0.28;;;9.50;1.00;;;;;;5052409;28;20064;-71
2023/12/31 10:24:33;;;;;;;0.43;0.43;;;9.40;1.00;;;;;;5055498;28;20488;-68
2023/12/31 10:27:05;;;;;;;0.30;0.30;;;9.20;1.00;;;;;;5036377;28;20049;-73
2023/12/31 10:29:38;;;;;;;0.35;0.35;;;11.60;1.00;;;;;;5036303;28;20054;-73
2023/12/31 10:32:05;;;;;;;0.50;0.50;;;9.50;1.00;;;;;;5051537;28;20471;-72
2023/12/31 10:34:31;;;;;;;0.30;0.30;;;9.50;1.00;;;;;;5051103;28;20055;-73
2023/12/31 10:37:07;;;;;;;0.47;0.47;;;9.50;1.00;;;;;;5053859;28;20049;-73
2023/12/31 10:39:35;;;;;;;0.63;0.63;;;9.60;1.00;;;;;;5054067;28;20051;-70
2023/12/31 10:42:05;;;;;;;0.50;0.50;;;9.60;1.00;;;;;;5055388;28;20056;-74
2023/12/31 10:44:38;;;;;;;0.35;0.35;;;9.80;1.00;;;;;;5059978;28;20587;-71
2023/12/31 10:47:05;;;;;;;1.63;1.23;;;9.40;1.00;;;;;;5044639;28;20486;-73
2023/12/31 10:49:32;;;;;;;0.50;0.50;;;9.40;1.00;;;;;;5056479;28;20052;-71
2023/12/31 10:52:03;;;;;;;0.25;0.25;;;9.90;1.00;;;;;;5058642;28;20266;-73
2023/12/31 10:54:53;;;;;;;0.98;0.88;;;9.60;1.00;;;;;;5056372;28;20048;-73
2023/12/31 10:57:21;;;;;;;0.60;0.60;;;9.70;1.00;;;;;;5053350;28;20446;-73
2023/12/31 10:59:53;;;;;;;0.52;0.52;;;9.80;1.00;;;;;;5087814;28;20390;-74
2023/12/31 11:02:20;;;;;;;0.75;0.75;;;9.80;1.00;;;;;;5053542;28;20052;-72
2023/12/31 11:04:51;;;;;;;0.40;0.40;;;9.80;1.00;;;;;;5053337;28;20060;-74
2023/12/31 11:07:20;;;;;;;1.23;1.15;;;10.40;1.00;;;;;;5052848;28;20041;-73
2023/12/31 11:09:47;;;;;;;16.45;1.80;;;9.80;1.00;;;;;;5067530;28;20095;-72
2023/12/31 11:12:14;;;;;;;0.90;0.90;;;9.70;2.30;;;;;;5073077;28;20048;-72
2023/12/31 11:15:03;;;;;;;1.60;1.23;;;9.40;5.10;;;;;;5071341;28;20568;-72
2023/12/31 11:18:01;;;;;;;2.08;1.08;;;9.40;7.90;;;;;;5072872;28;20053;-73
2023/12/31 11:20:51;;;;;;;0.70;0.70;;;9.80;19.80;;;;;;5072829;28;20041;-74
2023/12/31 11:23:25;;;;;;;1.55;1.35;;;9.90;26.00;;;;;;5044863;28;20052;-75
2023/12/31 11:25:51;;;;;;;0.82;0.82;;;9.50;54.80;;;;;;5052236;28;20056;-74
2023/12/31 11:28:17;;;;;;;1.02;1.02;;;9.50;57.00;;;;;;5062974;28;20045;-70
2023/12/31 11:31:09;;;;;;;0.38;0.38;;;9.40;86.80;;;;;;5059833;28;20527;-69
2023/12/31 11:33:35;;;;;;;0.20;0.20;;;9.00;99.90;;;;;;5057517;28;20049;-68
2023/12/31 11:36:07;;;;;;;3.00;0.50;;;9.00;99.90;;;;;;5061324;28;20550;-66
2023/12/31 11:38:55;;;;;;;0.30;0.30;;;9.00;99.90;;;;;;5050614;28;20049;-66
2023/12/31 11:41:23;;;;;;;0.20;0.20;;;8.60;99.90;;;;;;5057853;28;20476;-66
2023/12/31 11:43:51;;;;;;;0.45;0.45;;;8.70;99.90;;;;;;5059647;28;20051;-67
2023/12/31 11:46:49;;;;;;;0.20;0.20;;;8.50;99.90;;;;;;5065108;28;20052;-68
2023/12/31 11:49:16;;;;;;;;;;;8.60;97.40;;;;;;5050540;28;20060;-68
2023/12/31 11:51:55;;;;;;;0.40;0.40;;;8.80;99.90;;;;;;5058994;28;20273;-68
2023/12/31 11:54:43;;;;;;;0.20;0.20;;;8.30;99.90;;;;;;5089403;28;20309;-68
2023/12/31 11:57:10;;;;;;;0.20;0.20;;;8.60;99.90;;;;;;5062692;28;20042;-68
2023/12/31 11:59:42;;;;;;;1.55;0.35;;;8.60;99.90;;;;;;5050227;28;20124;-68
2023/12/31 12:02:07;;;;;;;0.20;0.20;;;8.60;99.90;;;;;;5052390;28;20432;-68
2023/12/31 12:04:35;;;;;;;0.20;0.20;;;8.40;99.90;;;;;;5053168;28;20049;-69
2023/12/31 12:07:03;;;;;;;0.20;0.20;;;8.50;99.90;;;;;;5052066;28;20090;-69
2023/12/31 12:09:31;;;;;;;0.20;0.20;;;8.60;99.90;;;;;;5052777;28;20088;-70
2023/12/31 12:12:02;;;;;;;0.98;0.95;;;8.00;99.90;;;;;;5039970;28;20103;-70
2023/12/31 12:14:28;;;;;;;0.10;0.10;;;8.40;99.90;;;;;;5052171;28;20053;-70
2023/12/31 12:16:54;;;;;;;0.20;0.20;;;8.40;99.90;;;;;;5051252;28;20132;-70
2023/12/31 12:19:25;;;;;;;0.20;0.20;;;8.70;99.90;;;;;;5052651;28;20131;-70
2023/12/31 12:21:51;;;;;;;0.30;0.30;;;8.50;99.90;;;;;;5052495;28;20056;-71
2023/12/31 12:24:17;;;;;;;0.20;0.20;;;8.60;99.90;;;;;;5052527;28;20048;-71
2023/12/31 12:26:48;;;;;;;0.17;0.17;;;9.20;99.90;;;;;;5052979;28;20048;-70
2023/12/31 12:29:17;;;;;;;0.20;0.20;;;9.20;99.90;;;;;;5053168;28;20127;-71
2023/12/31 12:31:47;;;;;;;0.20;0.20;;;9.20;99.90;;;;;;5035128;28;20052;-71
2023/12/31 12:34:20;;;;;;;0.10;0.10;;;9.10;99.90;;;;;;5085500;28;20481;-71
2023/12/31 12:36:47;;;;;;;0.22;0.22;;;9.70;99.90;;;;;;5051902;28;20351;-72
2023/12/31 12:39:14;;;;;;;0.20;0.20;;;9.50;99.90;;;;;;5053136;28;20045;-72
2023/12/31 12:41:52;;;;;;;0.20;0.20;;;9.80;99.90;;;;;;5052406;28;20048;-71
2023/12/31 12:44:20;;;;;;;0.20;0.20;;;9.60;99.40;;;;;;5062884;28;20072;-71
2023/12/31 12:46:48;;;;;;;0.10;0.10;;;9.40;71.30;;;;;;5046110;28;20053;-73
2023/12/31 12:49:14;;;;;;;0.17;0.17;;;9.70;61.00;;;;;;5050960;28;20040;-72
2023/12/31 12:51:41;;;;;;;0.17;0.17;;;9.40;42.40;;;;;;5052194;28;20098;-72
2023/12/31 12:54:07;;;;;;;0.10;0.10;;;9.60;36.40;;;;;;5084706;28;20053;-72
2023/12/31 12:56:33;;;;;;;0.20;0.20;;;9.40;37.00;;;;;;5050589;28;20072;-72
2023/12/31 12:59:00;;;;;;;0.30;0.30;;;9.30;44.40;;;;;;5058124;28;20124;-72
2023/12/31 13:01:27;;;;;;;0.10;0.10;;;9.30;54.70;;;;;;5057131;28;20049;-72